Godman Army Air Field
KFTK : now visible

Airfield :











YOU CAN JOIN US ON...

 
LOGIN :

Register | Disclaimer

   EN    FR    IT 

 









Legend :    VFR   Marginal VFR   IFR   Intensive IFR   Very Intensive IFR
Visi :
Ceiling :
>= 8 km
>= 3000ft
5 to 8 km
1000 to 3000 ft
1500m to 5 km
500 to 1000 ft
800 to 1500m
200 to 500 ft
< 800m
< 200 ft
Symbols :   Thunderstorms  Fog  Heavy snow  Heavy precipitations  Wind > 20 kt






- Airport Elevation : 756 ft


KFTK - Godman Army Air Field

CURRENT METAR :
  • 172221Z AUTO 24009KT 10SM -FZDZ OVC022 M02/M06 A2996 RMK AO2 UPE00UPB00E00FZDZB21 SLP156

EXPIRED METARs :
  • 172156Z AUTO 27007KT 10SM -UP OVC022 M02/M05 A2994 RMK AO2 SNE04SNB04E04FZDZB36E45FZRAB45E50UPB50 SLP150 P0000 T10161055
  • 172150Z AUTO 27006KT 10SM -UP OVC020 M02/M05 A2994 RMK AO2 SNE04SNB04E04FZDZB36E45FZRAB45E50UPB50 SLP150
  • 172136Z AUTO 27011G16KT 10SM -FZDZ OVC018 M02/M05 A2994 RMK AO2 SNE04SNB04E04FZDZB36 SLP150
  • 172106Z AUTO 26006KT 10SM OVC015 M02/M04 A2992 RMK AO2 SNE04SNB04E04 SLP143
  • 172056Z AUTO 27008KT 9SM -SN OVC012 M02/M04 A2992 RMK AO2 FZDZB06E20FZDZB20E20SNB28E39SNB39E39SNB49 SLP143 P0000 60000 T10201040 53020
  • 172040Z AUTO 26008KT 10SM BKN010 OVC015 M02/M04 A2991 RMK AO2 FZDZB06E20FZDZB20E20SNB28E39SNB39E39 SLP139
  • 172020Z AUTO 26009KT 10SM OVC009 M02/M04 A2991 RMK AO2 FZDZB06E20FZDZB20 SLP139
  • 172016Z AUTO 27010KT 10SM -FZDZ OVC009 M02/M04 A2990 RMK AO2 FZDZB06 SLP135
  • 171956Z AUTO 27009G17KT 10SM OVC010 M02/M04 A2990 RMK AO2 FZDZB21E35FZDZB35E35 SLP135 P0000 T10221045
  • 171935Z AUTO 27011KT 10SM OVC011 M02/M05 A2988 RMK AO2 FZDZB21E35FZDZB35 SLP129
  • 171921Z AUTO 27012KT 10SM -FZDZ OVC011 M02/M05 A2987 RMK AO2 FZDZB21 SLP125

Expired Forecast.
KZID FIR / North America



MET'MAP, your aeronautical weather chart ! - Copyright ORBIFLY December 2007 - Disclaimer

ORBIFLY MET'MAP TEAM :

Programming & Development : Alexandra Zaïnal
Concept & original design : Baudouin d'Aumeries
Assistance for programming : Marc-Olivier Méhu
Technical & hardware support : Manuel Goepfert

Contact : metmap@orbifly.com




SOURCES & CREDITS :

   NOAA       Earth
Advisory